createdAt,value
2023-04-26T00:00:12.047Z,100400.37
2023-04-26T00:03:15.840Z,100401.23
2023-04-26T00:06:05.801Z,100404.08
2023-04-26T00:08:52.709Z,100402.48
2023-04-26T00:11:39.508Z,100406.34
2023-04-26T00:14:26.739Z,100411.77
2023-04-26T00:17:13.133Z,100410.05
2023-04-26T00:20:00.560Z,100411.75
2023-04-26T00:22:47.382Z,100410.12
2023-04-26T00:25:33.817Z,100409.39
2023-04-26T00:28:20.354Z,100405.04
2023-04-26T00:31:07.300Z,100400.23
2023-04-26T00:33:54.163Z,100403.48
2023-04-26T00:36:40.363Z,100401.42
2023-04-26T00:39:27.524Z,100402.61
2023-04-26T00:42:13.999Z,100403.31
2023-04-26T00:45:01.142Z,100406.07
2023-04-26T00:47:47.693Z,100402.55
2023-04-26T00:50:35.409Z,100395.90
2023-04-26T00:53:23.390Z,100404.61
2023-04-26T00:56:11.094Z,100409.46
2023-04-26T00:58:57.667Z,100407.34
2023-04-26T01:01:44.622Z,100401.92
2023-04-26T01:04:31.609Z,100409.16
2023-04-26T01:07:18.531Z,100412.02
2023-04-26T01:10:06.296Z,100416.86
2023-04-26T01:12:53.742Z,100419.56
2023-04-26T01:15:47.581Z,100419.89
2023-04-26T01:18:35.203Z,100416.73
2023-04-26T01:21:22.339Z,100418.34
2023-04-26T01:24:13.236Z,100421.80
2023-04-26T01:26:59.475Z,100413.97
2023-04-26T01:29:46.380Z,100419.34
2023-04-26T01:32:33.023Z,100412.95
2023-04-26T01:35:19.638Z,100412.86
2023-04-26T01:38:08.613Z,100417.31
2023-04-26T01:40:55.351Z,100413.23
2023-04-26T01:43:42.210Z,100416.77
2023-04-26T01:46:28.624Z,100414.67
2023-04-26T01:49:15.012Z,100413.89
2023-04-26T01:52:02.067Z,100415.66
2023-04-26T01:54:49.604Z,100416.80
2023-04-26T01:57:36.362Z,100416.86
2023-04-26T02:00:23.023Z,100416.25
2023-04-26T02:03:09.577Z,100419.88
2023-04-26T02:05:56.154Z,100421.05
2023-04-26T02:08:42.630Z,100421.36
2023-04-26T02:11:29.276Z,100423.27
2023-04-26T02:14:15.782Z,100424.89
2023-04-26T02:17:04.029Z,100419.63
2023-04-26T02:19:50.750Z,100423.58
2023-04-26T02:22:37.622Z,100433.90
2023-04-26T02:25:24.778Z,100426.16
2023-04-26T02:28:11.719Z,100435.45
2023-04-26T02:30:58.699Z,100424.83
2023-04-26T02:33:45.564Z,100422.92
2023-04-26T02:36:33.183Z,100417.59
2023-04-26T02:39:19.438Z,100417.11
2023-04-26T02:42:10.334Z,100418.52
2023-04-26T02:44:57.150Z,100418.27
2023-04-26T02:47:44.453Z,100415.30
2023-04-26T02:50:31.111Z,100414.38
2023-04-26T02:53:18.076Z,100411.15
2023-04-26T02:56:04.549Z,100412.68
2023-04-26T02:58:51.652Z,100413.83
2023-04-26T03:01:38.666Z,100416.24
2023-04-26T03:04:25.468Z,100416.84
2023-04-26T03:07:12.054Z,100418.81
2023-04-26T03:09:58.778Z,100417.14
2023-04-26T03:12:45.421Z,100419.55
2023-04-26T03:15:31.696Z,100417.61
2023-04-26T03:18:19.400Z,100411.88
2023-04-26T03:21:06.303Z,100423.20
2023-04-26T03:23:52.894Z,100423.27
2023-04-26T03:26:39.640Z,100428.35
2023-04-26T03:29:26.286Z,100426.58
2023-04-26T03:32:13.071Z,100428.80
2023-04-26T03:34:59.881Z,100428.56
2023-04-26T03:37:46.476Z,100431.95
2023-04-26T03:40:33.015Z,100434.66
2023-04-26T03:43:19.441Z,100440.20
2023-04-26T03:46:05.855Z,100445.22
2023-04-26T03:48:53.525Z,100445.35
2023-04-26T03:51:40.295Z,100446.88
2023-04-26T03:54:27.003Z,100449.42
2023-04-26T03:57:14.947Z,100446.75
2023-04-26T04:00:02.031Z,100459.38
2023-04-26T04:02:49.982Z,100458.30
2023-04-26T04:05:41.405Z,100459.05
2023-04-26T04:08:27.874Z,100458.05
2023-04-26T04:11:15.803Z,100454.56
2023-04-26T04:14:03.756Z,100453.27
2023-04-26T04:16:50.827Z,100453.54
2023-04-26T04:19:37.763Z,100454.96
2023-04-26T04:22:24.692Z,100452.40
2023-04-26T04:25:11.854Z,100459.08
2023-04-26T04:27:59.854Z,100457.51
2023-04-26T04:30:47.314Z,100463.10
2023-04-26T04:33:33.841Z,100465.09
2023-04-26T04:36:20.839Z,100465.77
2023-04-26T04:39:13.453Z,100469.33
2023-04-26T04:42:00.536Z,100471.23
2023-04-26T04:44:47.757Z,100477.33
2023-04-26T04:47:37.863Z,100438.52
2023-04-26T04:50:25.316Z,100474.21
2023-04-26T04:53:14.687Z,100480.22
2023-04-26T04:56:01.577Z,100478.52
2023-04-26T04:58:49.111Z,100481.67
2023-04-26T05:01:38.749Z,100485.82
2023-04-26T05:04:29.797Z,100491.45
2023-04-26T05:07:18.517Z,100490.65
2023-04-26T05:10:05.819Z,100492.63
2023-04-26T05:12:52.214Z,100501.95
2023-04-26T05:15:38.984Z,100505.20
2023-04-26T05:18:25.868Z,100503.73
2023-04-26T05:21:12.844Z,100502.81
2023-04-26T05:23:59.989Z,100499.09
2023-04-26T05:26:47.264Z,100511.51
2023-04-26T05:29:52.943Z,100509.17
2023-04-26T05:33:03.358Z,100512.89
2023-04-26T05:35:58.001Z,100514.03
2023-04-26T05:38:45.196Z,100516.77
2023-04-26T05:41:31.622Z,100515.41
2023-04-26T05:44:18.492Z,100512.13
2023-04-26T05:47:05.411Z,100525.39
2023-04-26T05:49:52.043Z,100523.81
2023-04-26T05:52:39.109Z,100525.77
2023-04-26T05:55:25.483Z,100530.91
2023-04-26T05:58:12.160Z,100532.62
2023-04-26T06:00:59.532Z,100526.33
2023-04-26T06:03:46.837Z,100525.94
2023-04-26T06:06:34.545Z,100531.33
2023-04-26T06:09:21.108Z,100532.56
2023-04-26T06:12:07.698Z,100538.92
2023-04-26T06:14:56.372Z,100536.27
2023-04-26T06:17:44.305Z,100534.80
2023-04-26T06:20:30.913Z,100537.68
2023-04-26T06:23:20.197Z,100530.64
2023-04-26T06:26:07.346Z,100530.91
2023-04-26T06:28:54.064Z,100527.07
2023-04-26T06:31:41.073Z,100526.19
2023-04-26T06:34:30.508Z,100522.85
2023-04-26T06:37:17.292Z,100522.21
2023-04-26T06:40:04.206Z,100528.05
2023-04-26T06:42:51.549Z,100529.31
2023-04-26T06:45:38.153Z,100527.95
2023-04-26T06:48:24.802Z,100523.51
2023-04-26T06:51:11.260Z,100529.38
2023-04-26T06:53:59.296Z,100514.41
2023-04-26T06:56:46.203Z,100522.77
2023-04-26T06:59:32.498Z,100523.27
2023-04-26T07:02:19.367Z,100523.66
2023-04-26T07:05:06.457Z,100523.23
2023-04-26T07:07:53.150Z,100521.05
2023-04-26T07:10:40.093Z,100526.73
2023-04-26T07:13:26.897Z,100527.11
2023-04-26T07:16:13.481Z,100526.80
2023-04-26T07:18:59.836Z,100530.65
2023-04-26T07:21:46.741Z,100528.70
2023-04-26T07:24:33.130Z,100531.66
2023-04-26T07:27:19.479Z,100529.35
2023-04-26T07:30:06.706Z,100531.86
2023-04-26T07:32:53.348Z,100533.03
2023-04-26T07:35:40.306Z,100534.65
2023-04-26T07:38:27.439Z,100534.31
2023-04-26T07:41:16.445Z,100532.07
2023-04-26T07:44:03.210Z,100532.64
2023-04-26T07:46:49.513Z,100532.96
2023-04-26T07:49:36.063Z,100547.35
2023-04-26T07:52:23.030Z,100532.15
2023-04-26T07:55:09.694Z,100540.11
2023-04-26T07:57:56.747Z,100542.92
2023-04-26T08:00:43.087Z,100549.92
2023-04-26T08:03:29.596Z,100552.08
2023-04-26T08:06:16.868Z,100558.04
2023-04-26T08:09:05.031Z,100561.48
2023-04-26T08:11:51.336Z,100556.67
2023-04-26T08:14:38.723Z,100557.38
2023-04-26T08:17:25.211Z,100556.57
2023-04-26T08:20:11.753Z,100562.81
2023-04-26T08:22:59.193Z,100565.66
2023-04-26T08:25:47.283Z,100555.64
2023-04-26T08:28:35.852Z,100567.70
2023-04-26T08:31:23.025Z,100565.11
2023-04-26T08:34:11.406Z,100565.36
2023-04-26T08:36:58.199Z,100574.91
2023-04-26T08:39:44.899Z,100579.48
2023-04-26T08:42:32.172Z,100583.13
2023-04-26T08:45:20.624Z,100576.81
2023-04-26T08:48:14.988Z,100583.67
2023-04-26T08:51:02.528Z,100578.24
2023-04-26T08:53:53.236Z,100579.33
2023-04-26T08:56:44.167Z,100588.27
2023-04-26T08:59:31.273Z,100593.81
2023-04-26T09:02:19.883Z,100600.29
2023-04-26T09:05:07.496Z,100598.98
2023-04-26T09:07:57.852Z,100603.89
2023-04-26T09:10:44.522Z,100614.61
2023-04-26T09:13:30.917Z,100610.89
2023-04-26T09:16:17.895Z,100602.27
2023-04-26T09:19:04.502Z,100608.16
2023-04-26T09:21:52.922Z,100606.98
2023-04-26T09:24:52.173Z,100610.19
2023-04-26T09:27:40.371Z,100615.74
2023-04-26T09:30:28.560Z,100614.16
2023-04-26T09:33:15.314Z,100618.36
2023-04-26T09:36:13.392Z,100614.61
2023-04-26T09:39:00.520Z,100602.89
2023-04-26T09:41:47.025Z,100609.90
2023-04-26T09:44:34.088Z,100608.83
2023-04-26T09:47:22.169Z,100613.94
2023-04-26T09:50:09.111Z,100622.01
2023-04-26T09:52:56.805Z,100615.76
2023-04-26T09:55:43.353Z,100615.34
2023-04-26T09:58:29.985Z,100621.70
2023-04-26T10:01:18.216Z,100623.48
2023-04-26T10:04:06.870Z,100621.64
2023-04-26T10:06:53.213Z,100618.43
2023-04-26T10:09:39.959Z,100604.05
2023-04-26T10:12:26.566Z,100605.28
2023-04-26T10:15:13.128Z,100610.01
2023-04-26T10:17:59.912Z,100613.46
2023-04-26T10:20:53.135Z,100617.11
2023-04-26T10:23:40.928Z,100630.27
2023-04-26T10:26:54.526Z,100634.34
2023-04-26T10:29:56.560Z,100639.73
2023-04-26T10:32:53.248Z,100645.98
2023-04-26T10:36:05.389Z,100640.85
2023-04-26T10:39:25.261Z,100644.93
2023-04-26T10:42:26.743Z,100643.83
2023-04-26T10:45:28.205Z,100649.27
2023-04-26T10:48:20.659Z,100647.46
2023-04-26T10:51:12.859Z,100652.20
2023-04-26T10:53:59.550Z,100656.07
2023-04-26T10:56:48.966Z,100658.16
2023-04-26T10:59:47.203Z,100663.62
2023-04-26T11:02:57.973Z,100659.21
2023-04-26T11:05:47.299Z,100664.23
2023-04-26T11:08:34.341Z,100672.98
2023-04-26T11:11:26.563Z,100664.40
2023-04-26T11:14:14.477Z,100667.33
2023-04-26T11:17:05.617Z,100662.63
2023-04-26T11:19:52.171Z,100666.59
2023-04-26T11:22:42.377Z,100664.53
2023-04-26T11:25:29.844Z,100657.64
2023-04-26T11:28:16.365Z,100652.64
2023-04-26T11:31:04.241Z,100651.84
2023-04-26T11:33:51.044Z,100658.94
2023-04-26T11:36:38.738Z,100666.35
2023-04-26T11:39:25.401Z,100675.64
2023-04-26T11:42:12.607Z,100683.23
2023-04-26T11:45:01.642Z,100683.93
2023-04-26T11:47:48.959Z,100679.09
2023-04-26T11:50:37.580Z,100689.78
2023-04-26T11:53:24.755Z,100685.59
2023-04-26T11:56:18.825Z,100670.04
2023-04-26T11:59:05.983Z,100682.13
2023-04-26T12:01:53.627Z,100683.08
2023-04-26T12:04:41.309Z,100680.37
2023-04-26T12:07:34.611Z,100672.06
2023-04-26T12:10:26.029Z,100669.30
2023-04-26T12:13:14.088Z,100668.41
2023-04-26T12:18:57.069Z,100678.39
2023-04-26T12:21:44.598Z,100677.52
2023-04-26T12:24:34.681Z,100672.17
2023-04-26T12:27:22.091Z,100677.98
2023-04-26T12:30:09.258Z,100678.43
2023-04-26T12:33:05.770Z,100680.21
2023-04-26T12:35:57.747Z,100684.60
2023-04-26T12:38:44.382Z,100693.48
2023-04-26T12:41:31.141Z,100691.33
2023-04-26T12:44:19.596Z,100686.45
2023-04-26T12:47:08.425Z,100678.84
2023-04-26T12:49:55.095Z,100669.12
2023-04-26T12:52:44.460Z,100668.19
2023-04-26T12:55:32.548Z,100678.54
2023-04-26T12:58:19.453Z,100677.48
2023-04-26T13:01:06.184Z,100680.67
2023-04-26T13:03:52.908Z,100687.46
2023-04-26T13:06:39.893Z,100692.20
2023-04-26T13:09:26.284Z,100694.70
2023-04-26T13:12:14.221Z,100683.66
2023-04-26T13:15:01.148Z,100680.73
2023-04-26T13:17:47.733Z,100672.45
2023-04-26T13:20:34.413Z,100676.23
2023-04-26T13:23:21.094Z,100676.42
2023-04-26T13:26:08.887Z,100682.66
2023-04-26T13:28:55.937Z,100689.46
2023-04-26T13:31:43.266Z,100694.52
2023-04-26T13:34:30.916Z,100686.15
2023-04-26T13:37:20.274Z,100676.40
2023-04-26T13:40:07.624Z,100677.49
2023-04-26T13:42:53.990Z,100679.64
2023-04-26T13:45:40.519Z,100681.36
2023-04-26T13:48:27.985Z,100688.38
2023-04-26T13:51:14.399Z,100695.38
2023-04-26T13:54:00.940Z,100701.90
2023-04-26T13:56:47.610Z,100699.23
2023-04-26T13:59:34.003Z,100710.07
2023-04-26T14:02:21.652Z,100714.49
2023-04-26T14:05:09.203Z,100715.14
2023-04-26T14:07:55.876Z,100720.63
2023-04-26T14:10:42.019Z,100724.82
2023-04-26T14:13:28.423Z,100719.27
2023-04-26T14:16:15.162Z,100716.42
2023-04-26T14:19:02.121Z,100710.09
2023-04-26T14:21:48.564Z,100709.72
2023-04-26T14:24:35.457Z,100703.41
2023-04-26T14:27:22.168Z,100703.38
2023-04-26T14:30:09.132Z,100712.69
2023-04-26T14:32:55.801Z,100714.83
2023-04-26T14:35:42.173Z,100708.16
2023-04-26T14:38:28.815Z,100714.52
2023-04-26T14:41:16.609Z,100709.13
2023-04-26T14:44:02.904Z,100728.10
2023-04-26T14:46:49.409Z,100729.08
2023-04-26T14:49:36.226Z,100734.79
2023-04-26T14:52:26.931Z,100737.64
2023-04-26T14:55:22.466Z,100734.48
2023-04-26T14:58:08.717Z,100738.44
2023-04-26T15:00:55.430Z,100741.23
2023-04-26T15:03:42.039Z,100751.39
2023-04-26T15:06:28.910Z,100752.79
2023-04-26T15:09:15.385Z,100753.62
2023-04-26T15:12:02.608Z,100751.25
2023-04-26T15:14:49.131Z,100750.81
2023-04-26T15:17:35.719Z,100756.13
2023-04-26T15:20:22.482Z,100756.86
2023-04-26T15:23:09.258Z,100761.66
2023-04-26T15:25:55.526Z,100763.41
2023-04-26T15:28:41.886Z,100770.77
2023-04-26T15:31:28.736Z,100765.18
2023-04-26T15:34:16.682Z,100772.38
2023-04-26T15:37:03.053Z,100769.73
2023-04-26T15:39:49.769Z,100761.19
2023-04-26T15:42:36.680Z,100759.40
2023-04-26T15:45:23.301Z,100761.36
2023-04-26T15:48:12.159Z,100771.11
2023-04-26T15:50:58.522Z,100766.36
2023-04-26T15:53:45.423Z,100766.13
2023-04-26T15:56:32.119Z,100773.13
2023-04-26T15:59:18.810Z,100771.23
2023-04-26T16:02:06.295Z,100777.48
2023-04-26T16:04:53.204Z,100778.23
2023-04-26T16:07:40.319Z,100789.32
2023-04-26T16:10:27.167Z,100784.16
2023-04-26T16:13:13.817Z,100781.15
2023-04-26T16:16:00.709Z,100787.17
2023-04-26T16:18:47.387Z,100787.02
2023-04-26T16:21:34.263Z,100799.16
2023-04-26T16:24:21.989Z,100800.17
2023-04-26T16:27:09.584Z,100803.61
2023-04-26T16:29:56.126Z,100809.28
2023-04-26T16:32:43.501Z,100808.36
2023-04-26T16:35:30.586Z,100817.77
2023-04-26T16:38:18.634Z,100824.35
2023-04-26T16:41:05.222Z,100815.23
2023-04-26T16:43:53.150Z,100831.70
2023-04-26T16:46:40.079Z,100832.20
2023-04-26T16:49:26.703Z,100832.66
2023-04-26T16:52:13.033Z,100833.05
2023-04-26T16:54:59.692Z,100838.91
2023-04-26T16:57:46.512Z,100842.60
2023-04-26T17:00:33.005Z,100840.55
2023-04-26T17:03:19.682Z,100845.44
2023-04-26T17:06:07.783Z,100847.74
2023-04-26T17:08:54.278Z,100841.46
2023-04-26T17:11:43.569Z,100843.11
2023-04-26T17:14:30.232Z,100832.60
2023-04-26T17:17:16.834Z,100833.40
2023-04-26T17:20:06.893Z,100837.42
2023-04-26T17:22:53.375Z,100833.47
2023-04-26T17:25:39.680Z,100837.79
2023-04-26T17:28:26.556Z,100838.59
2023-04-26T17:31:12.935Z,100850.10
2023-04-26T17:33:59.302Z,100851.70
2023-04-26T17:36:47.606Z,100859.35
2023-04-26T17:39:33.571Z,100864.38
2023-04-26T17:42:20.761Z,100865.08
2023-04-26T17:45:07.728Z,100869.81
2023-04-26T17:47:54.014Z,100867.73
2023-04-26T17:50:40.573Z,100878.15
2023-04-26T17:53:27.545Z,100880.84
2023-04-26T17:56:13.864Z,100883.85
2023-04-26T17:59:03.024Z,100886.31
2023-04-26T18:01:50.065Z,100894.79
2023-04-26T18:04:37.282Z,100895.77
2023-04-26T18:07:23.772Z,100898.83
2023-04-26T18:10:10.969Z,100901.27
2023-04-26T18:12:57.841Z,100897.70
2023-04-26T18:15:44.253Z,100902.44
2023-04-26T18:18:30.678Z,100905.04
2023-04-26T18:21:17.082Z,100909.11
2023-04-26T18:24:03.810Z,100914.04
2023-04-26T18:26:49.988Z,100912.81
2023-04-26T18:29:36.643Z,100914.36
2023-04-26T18:32:23.177Z,100911.29
2023-04-26T18:35:10.153Z,100914.20
2023-04-26T18:37:57.226Z,100921.49
2023-04-26T18:40:44.725Z,100926.30
2023-04-26T18:43:31.642Z,100929.84
2023-04-26T18:46:18.194Z,100929.73
2023-04-26T18:49:05.080Z,100930.85
2023-04-26T18:51:51.964Z,100931.21
2023-04-26T18:54:39.002Z,100935.89
2023-04-26T18:57:26.788Z,100941.79
2023-04-26T19:00:13.667Z,100942.58
2023-04-26T19:03:00.758Z,100946.73
2023-04-26T19:05:47.337Z,100945.48
2023-04-26T19:08:34.149Z,100938.02
2023-04-26T19:11:21.283Z,100944.77
2023-04-26T19:14:07.739Z,100950.11
2023-04-26T19:16:54.375Z,100948.73
2023-04-26T19:19:40.665Z,100947.88
2023-04-26T19:22:27.329Z,100939.41
2023-04-26T19:25:14.898Z,100956.40
2023-04-26T19:28:01.596Z,100959.63
2023-04-26T19:30:47.951Z,100961.25
2023-04-26T19:33:34.640Z,100966.04
2023-04-26T19:36:21.011Z,100967.20
2023-04-26T19:39:07.155Z,100967.24
2023-04-26T19:41:53.571Z,100971.40
2023-04-26T19:44:39.977Z,100965.95
2023-04-26T19:47:26.831Z,100970.20
2023-04-26T19:50:13.461Z,100973.17
2023-04-26T19:53:00.313Z,100967.45
2023-04-26T19:55:46.911Z,100967.14
2023-04-26T19:58:33.544Z,100967.83
2023-04-26T20:01:20.557Z,100971.78
2023-04-26T20:04:07.339Z,100968.88
2023-04-26T20:06:53.859Z,100972.41
2023-04-26T20:09:40.351Z,100970.14
2023-04-26T20:12:27.387Z,100972.51
2023-04-26T20:15:15.216Z,100972.22
2023-04-26T20:18:02.549Z,100973.23
2023-04-26T20:20:51.521Z,100971.43
2023-04-26T20:23:38.210Z,100967.09
2023-04-26T20:26:24.911Z,100966.01
2023-04-26T20:29:11.506Z,100974.66
2023-04-26T20:31:58.276Z,100972.16
2023-04-26T20:34:45.124Z,100976.64
2023-04-26T20:37:32.004Z,100980.42
2023-04-26T20:40:18.342Z,100977.61
2023-04-26T20:43:08.862Z,100979.38
2023-04-26T20:45:56.011Z,100982.72
2023-04-26T20:48:43.579Z,100987.39
2023-04-26T20:51:30.546Z,100985.69
2023-04-26T20:54:17.182Z,100984.95
2023-04-26T20:57:04.106Z,100985.11
2023-04-26T20:59:50.819Z,100982.36
2023-04-26T21:02:40.593Z,100985.64
2023-04-26T21:05:27.835Z,100985.98
2023-04-26T21:08:15.272Z,100986.67
2023-04-26T21:11:02.196Z,100984.77
2023-04-26T21:13:49.577Z,100981.73
2023-04-26T21:16:36.233Z,100989.36
2023-04-26T21:19:22.539Z,100992.05
2023-04-26T21:22:11.917Z,100995.40
2023-04-26T21:24:58.461Z,100991.23
2023-04-26T21:27:46.353Z,100998.26
2023-04-26T21:30:33.462Z,101003.45
2023-04-26T21:33:20.216Z,101006.45
2023-04-26T21:36:07.418Z,101006.23
2023-04-26T21:38:55.464Z,101013.22
2023-04-26T21:41:42.004Z,101013.23
2023-04-26T21:44:29.726Z,101012.40
2023-04-26T21:47:16.377Z,101013.71
2023-04-26T21:50:03.528Z,101013.55
2023-04-26T21:52:50.625Z,101017.88
2023-04-26T21:55:37.650Z,101019.63
2023-04-26T21:58:24.343Z,101022.81
2023-04-26T22:01:14.411Z,101024.76
2023-04-26T22:04:02.844Z,101029.80
2023-04-26T22:06:50.476Z,101031.36
2023-04-26T22:09:37.126Z,101035.55
2023-04-26T22:12:23.837Z,101038.05
2023-04-26T22:15:11.139Z,101047.09
2023-04-26T22:17:57.705Z,101045.00
2023-04-26T22:20:44.461Z,101047.18
2023-04-26T22:23:31.478Z,101049.19
2023-04-26T22:26:18.457Z,101046.61
2023-04-26T22:29:05.081Z,101049.29
2023-04-26T22:31:51.903Z,101054.35
2023-04-26T22:34:38.255Z,101056.02
2023-04-26T22:37:24.841Z,101051.36
2023-04-26T22:40:13.004Z,101052.95
2023-04-26T22:42:59.642Z,101052.26
2023-04-26T22:45:46.373Z,101050.94
2023-04-26T22:48:33.030Z,101050.66
2023-04-26T22:51:19.659Z,101055.98
2023-04-26T22:54:06.563Z,101054.99
2023-04-26T22:56:52.918Z,101057.23
2023-04-26T22:59:39.252Z,101053.96
2023-04-26T23:02:26.052Z,101060.33
2023-04-26T23:05:12.693Z,101051.55
2023-04-26T23:07:59.084Z,101054.52
2023-04-26T23:10:45.580Z,101059.52
2023-04-26T23:13:32.497Z,101057.98
2023-04-26T23:16:18.772Z,101064.29
2023-04-26T23:19:05.257Z,101063.79
2023-04-26T23:21:51.805Z,101069.85
2023-04-26T23:24:38.300Z,101064.15
2023-04-26T23:27:24.925Z,101067.64
2023-04-26T23:30:14.011Z,101067.04
2023-04-26T23:33:00.764Z,101071.27
2023-04-26T23:35:47.344Z,101067.09
2023-04-26T23:38:33.427Z,101065.26
2023-04-26T23:41:20.102Z,101062.82
2023-04-26T23:44:07.298Z,101066.47
2023-04-26T23:46:53.686Z,101066.13
2023-04-26T23:49:40.360Z,101068.66
2023-04-26T23:52:27.714Z,101068.09
2023-04-26T23:55:13.991Z,101069.89
2023-04-26T23:58:00.577Z,101067.79
